Time;durP1;ratioP1;P1;durP2;ratioP2;P2;SDS_P1;SDS_P2;PMS_P1;PMS_P2;Temp;Humidity;BMP_temperature;BMP_pressure;BME280_temperature;BME280_humidity;BME280_pressure;Samples;Min_cycle;Max_cycle;Signal;HPM_P1;HPM_P2
2021/10/07 00:01:46;;;;;;;12.17;10.47;;;;;;;12.21;89.40;95431.44;5051503;28;20450;-80
2021/10/07 00:04:12;;;;;;;12.40;11.10;;;;;;;12.21;88.72;95422.72;5051341;28;20446;-80
2021/10/07 00:06:39;;;;;;;11.40;10.20;;;;;;;12.21;88.93;95423.53;5051528;28;20829;-80
2021/10/07 00:09:06;;;;;;;17.33;12.10;;;;;;;12.16;90.89;95420.47;5051700;28;20445;-79
2021/10/07 00:11:34;;;;;;;15.00;13.40;;;;;;;12.14;90.85;95418.91;5053032;28;20442;-80
2021/10/07 00:14:03;;;;;;;14.97;13.33;;;;;;;12.12;90.75;95412.94;5055245;28;20482;-80
2021/10/07 00:16:30;;;;;;;18.00;14.57;;;;;;;12.15;90.93;95410.06;5054992;28;20447;-80
2021/10/07 00:18:57;;;;;;;25.67;14.73;;;;;;;12.08;91.94;95412.34;5055435;28;20448;-80
2021/10/07 00:21:24;;;;;;;17.80;14.83;;;;;;;12.04;92.28;95410.94;5054704;28;20446;-80
2021/10/07 00:24:07;;;;;;;20.70;16.40;;;;;;;12.07;91.74;95410.69;5055182;28;20460;-80
2021/10/07 00:26:34;;;;;;;19.10;16.07;;;;;;;12.14;91.70;95422.38;5054938;28;20450;-80
2021/10/07 00:29:11;;;;;;;17.40;15.07;;;;;;;12.15;91.72;95425.84;5054952;28;20450;-79
2021/10/07 00:31:40;;;;;;;20.03;14.93;;;;;;;12.25;92.14;95414.44;5055004;28;20917;-80
2021/10/07 00:34:17;;;;;;;19.00;14.33;;;;;;;12.25;91.71;95409.16;5036410;28;21005;-80
2021/10/07 00:36:59;;;;;;;25.17;16.53;;;;;;;11.98;93.01;95398.28;5054783;28;20453;-80
2021/10/07 00:39:25;;;;;;;18.80;15.67;;;;;;;12.15;92.78;95391.66;5067544;28;20454;-80
2021/10/07 00:41:52;;;;;;;18.80;15.60;;;;;;;11.90;92.45;95391.03;5054607;28;20872;-80
2021/10/07 00:44:21;;;;;;;19.33;15.27;;;;;;;11.93;93.16;95392.59;5054702;28;20446;-80
2021/10/07 00:46:50;;;;;;;18.20;14.83;;;;;;;12.09;92.44;95392.97;5054971;28;20880;-80
2021/10/07 00:49:18;;;;;;;20.10;15.30;;;;;;;12.17;92.63;95390.56;5054131;28;20854;-77
2021/10/07 00:51:45;;;;;;;20.10;15.07;;;;;;;11.98;92.55;95385.16;5055724;28;20830;-80
2021/10/07 00:54:14;;;;;;;19.53;15.50;;;;;;;12.12;92.73;95382.19;5055578;28;20481;-80
2021/10/07 00:56:42;;;;;;;17.73;13.77;;;;;;;12.14;91.54;95387.31;5055647;28;20470;-80
2021/10/07 00:59:09;;;;;;;19.20;15.03;;;;;;;12.24;91.32;95377.72;5055496;28;20784;-80
2021/10/07 01:01:37;;;;;;;16.47;13.57;;;;;;;12.22;92.00;95380.50;5055272;28;20457;-80
2021/10/07 01:04:05;;;;;;;18.87;13.43;;;;;;;12.21;91.46;95380.63;5055199;28;20450;-80
2021/10/07 01:06:33;;;;;;;16.43;14.70;;;;;;;11.97;92.09;95380.84;5055161;28;20458;-79
2021/10/07 01:09:00;;;;;;;15.73;14.03;;;;;;;12.02;92.15;95383.94;5055323;28;20446;-80
2021/10/07 01:11:27;;;;;;;19.07;13.37;;;;;;;12.15;91.44;95384.59;5055088;28;20453;-80
2021/10/07 01:13:55;;;;;;;16.20;14.57;;;;;;;12.31;90.66;95382.34;5055081;28;20490;-80
2021/10/07 01:16:22;;;;;;;15.40;13.80;;;;;;;12.33;90.20;95390.94;5055317;28;20930;-80
2021/10/07 01:18:51;;;;;;;23.13;14.70;;;;;;;12.38;90.06;95387.91;5069369;28;20438;-80
2021/10/07 01:21:20;;;;;;;16.27;13.63;;;;;;;12.48;89.60;95383.56;5055240;28;20442;-80
2021/10/07 01:23:49;;;;;;;15.23;13.40;;;;;;;12.10;90.32;95378.84;5054666;28;20454;-79
2021/10/07 01:26:18;;;;;;;16.60;13.90;;;;;;;12.04;91.20;95374.13;5055210;28;20442;-79
2021/10/07 01:28:47;;;;;;;19.63;15.57;;;;;;;12.02;92.17;95370.78;5054855;28;20446;-80
2021/10/07 01:31:15;;;;;;;18.50;14.83;;;;;;;11.89;92.08;95370.13;5054633;28;20452;-79
2021/10/07 01:33:42;;;;;;;17.10;15.13;;;;;;;12.00;91.75;95363.00;5069446;28;20485;-80
2021/10/07 01:36:09;;;;;;;18.70;13.40;;;;;;;12.04;92.24;95364.44;5054680;28;20951;-79
2021/10/07 01:38:37;;;;;;;17.47;14.70;;;;;;;11.90;92.16;95363.91;5036170;28;20934;-79
2021/10/07 01:41:04;;;;;;;19.17;15.47;;;;;;;11.90;93.55;95345.50;5069457;28;20461;-80
2021/10/07 01:43:31;;;;;;;17.20;13.33;;;;;;;11.88;93.13;95355.31;5054559;28;20442;-79
2021/10/07 01:45:58;;;;;;;16.33;14.70;;;;;;;12.08;92.28;95357.09;5054530;28;20453;-80
2021/10/07 01:48:25;;;;;;;16.30;12.73;;;;;;;12.19;91.39;95372.84;5054522;28;20441;-80
2021/10/07 01:50:52;;;;;;;22.47;14.30;;;;;;;12.02;92.01;95357.63;5054805;28;20445;-80
2021/10/07 01:53:19;;;;;;;23.83;14.73;;;;;;;11.96;92.79;95366.03;5054328;28;20541;-80
2021/10/07 01:55:47;;;;;;;18.43;15.67;;;;;;;11.89;92.56;95364.88;5054253;28;20501;-79
2021/10/07 01:58:14;;;;;;;21.33;15.80;;;;;;;11.98;92.83;95361.47;5068846;28;20448;-79
2021/10/07 02:00:41;;;;;;;17.57;15.67;;;;;;;11.95;92.05;95367.81;5054324;28;20438;-79
2021/10/07 02:03:08;;;;;;;19.17;14.20;;;;;;;11.92;92.63;95364.63;5054249;28;20776;-80
2021/10/07 02:05:35;;;;;;;19.03;13.50;;;;;;;11.94;92.33;95367.94;5054280;28;20442;-79
2021/10/07 02:08:02;;;;;;;20.13;14.00;;;;;;;11.82;92.15;95363.69;5053995;28;20438;-79
2021/10/07 02:10:29;;;;;;;15.67;13.70;;;;;;;11.90;91.95;95348.97;5053930;28;20971;-79
2021/10/07 02:12:57;;;;;;;19.10;14.97;;;;;;;12.05;91.95;95355.56;5053997;28;20439;-80
2021/10/07 02:15:24;;;;;;;16.93;14.13;;;;;;;12.07;90.78;95363.34;5053908;28;20482;-79
2021/10/07 02:17:51;;;;;;;15.93;14.00;;;;;;;12.13;90.48;95354.94;5054028;28;20450;-80
2021/10/07 02:20:18;;;;;;;13.47;12.20;;;;;;;12.11;90.43;95351.59;5054017;28;20453;-79
2021/10/07 02:22:45;;;;;;;14.90;13.40;;;;;;;11.92;89.32;95354.09;5035152;28;20448;-80
2021/10/07 02:25:14;;;;;;;14.00;12.70;;;;;;;11.90;90.62;95353.41;5053726;28;20447;-79
2021/10/07 02:27:41;;;;;;;20.10;13.83;;;;;;;11.85;89.35;95353.75;5053721;28;20810;-79
2021/10/07 02:30:12;;;;;;;17.30;13.60;;;;;;;11.92;89.29;95344.41;5053997;28;20461;-80
2021/10/07 02:32:38;;;;;;;17.87;12.90;;;;;;;12.01;88.95;95348.91;5053755;28;20447;-80
2021/10/07 02:35:06;;;;;;;18.63;14.27;;;;;;;11.93;88.85;95347.88;5052800;28;20485;-80
2021/10/07 02:37:34;;;;;;;16.70;13.67;;;;;;;11.91;88.01;95332.22;5068192;28;20450;-80
2021/10/07 02:40:01;;;;;;;15.57;12.30;;;;;;;11.91;88.39;95339.28;5053648;28;20442;-81
2021/10/07 02:42:28;;;;;;;17.53;12.20;;;;;;;11.83;88.77;95333.81;5053957;28;20445;-80
2021/10/07 02:44:55;;;;;;;16.30;13.30;;;;;;;12.04;87.27;95337.28;5053650;28;20809;-80
2021/10/07 02:47:23;;;;;;;19.67;13.63;;;;;;;11.91;88.24;95336.66;5053537;28;20450;-80
2021/10/07 02:49:50;;;;;;;16.77;12.17;;;;;;;11.95;88.23;95335.44;5053559;28;20441;-80
2021/10/07 02:52:17;;;;;;;15.47;11.67;;;;;;;12.00;87.51;95333.25;5053568;28;20938;-80
2021/10/07 02:54:44;;;;;;;19.20;13.30;;;;;;;12.07;87.29;95326.50;5053425;28;20481;-80
2021/10/07 02:57:10;;;;;;;18.20;12.37;;;;;;;12.02;87.23;95331.31;5053673;28;20441;-80
2021/10/07 02:59:37;;;;;;;27.73;13.70;;;;;;;11.97;87.43;95331.72;5053186;28;20809;-81
2021/10/07 03:02:04;;;;;;;20.50;12.57;;;;;;;12.01;87.81;95327.03;5053177;28;20452;-80
2021/10/07 03:04:33;;;;;;;16.30;13.40;;;;;;;12.18;86.65;95326.47;5053121;28;20464;-80
2021/10/07 03:07:00;;;;;;;15.30;12.23;;;;;;;11.94;87.66;95315.34;5053479;28;20453;-80
2021/10/07 03:09:27;;;;;;;16.30;13.20;;;;;;;11.93;87.75;95313.69;5034477;28;20475;-80
2021/10/07 03:11:53;;;;;;;17.50;13.73;;;;;;;12.08;88.18;95320.28;5053119;28;20940;-81
2021/10/07 03:14:20;;;;;;;16.63;14.40;;;;;;;12.20;86.94;95321.91;5052869;28;20486;-80
2021/10/07 03:16:47;;;;;;;15.80;12.90;;;;;;;12.17;87.63;95318.69;5052901;28;20446;-79
2021/10/07 03:19:14;;;;;;;18.33;13.97;;;;;;;11.87;88.36;95319.47;5053045;28;20952;-80
2021/10/07 03:21:42;;;;;;;15.20;12.57;;;;;;;11.76;89.61;95312.41;5053367;28;20465;-79
2021/10/07 03:24:09;;;;;;;19.90;15.13;;;;;;;11.70;90.23;95307.66;5053650;28;20464;-80
2021/10/07 03:26:36;;;;;;;26.60;14.30;;;;;;;11.68;90.42;95314.84;5052927;28;20800;-80
2021/10/07 03:29:03;;;;;;;22.43;13.50;;;;;;;11.69;90.58;95316.53;5067812;28;20453;-80
2021/10/07 03:31:30;;;;;;;18.10;12.70;;;;;;;11.68;90.27;95325.38;5053038;28;20441;-80
2021/10/07 03:33:57;;;;;;;15.43;12.00;;;;;;;11.61;91.09;95327.66;5053130;28;20453;-80
2021/10/07 03:36:24;;;;;;;18.80;14.77;;;;;;;11.64;91.99;95324.78;5053374;28;20472;-80
2021/10/07 03:38:53;;;;;;;19.97;14.03;;;;;;;11.70;90.94;95332.16;5053169;28;20453;-80
2021/10/07 03:41:20;;;;;;;22.07;15.20;;;;;;;11.72;91.75;95332.88;5053047;28;20948;-80
2021/10/07 03:43:47;;;;;;;18.23;14.07;;;;;;;11.77;90.16;95333.31;5017692;28;20442;-80
2021/10/07 03:46:14;;;;;;;19.63;13.50;;;;;;;11.66;91.36;95333.38;5053637;28;20926;-80
2021/10/07 03:48:41;;;;;;;25.57;15.07;;;;;;;11.75;90.62;95337.88;5056868;28;20504;-80
2021/10/07 03:51:08;;;;;;;16.83;14.20;;;;;;;11.77;91.02;95341.22;5057144;28;20434;-80
2021/10/07 03:53:35;;;;;;;19.30;15.30;;;;;;;11.69;91.77;95337.53;5056675;28;20456;-80
2021/10/07 03:56:05;;;;;;;25.50;16.87;;;;;;;11.69;91.87;95335.75;5037783;28;20493;-80
2021/10/07 03:58:31;;;;;;;23.90;15.63;;;;;;;11.68;90.62;95341.97;5056683;28;20448;-80
2021/10/07 04:00:58;;;;;;;20.30;16.30;;;;;;;11.84;90.78;95340.72;5056610;28;20446;-80
2021/10/07 04:03:25;;;;;;;30.27;16.13;;;;;;;11.82;91.12;95334.75;5056430;28;20453;-80
2021/10/07 04:05:53;;;;;;;16.50;14.80;;;;;;;11.89;90.87;95328.06;5056982;28;20457;-82
2021/10/07 04:08:20;;;;;;;20.67;15.00;;;;;;;11.97;89.68;95323.00;5056417;28;20944;-81
2021/10/07 04:10:50;;;;;;;15.63;13.00;;;;;;;12.17;88.68;95332.69;5038011;28;20445;-80
2021/10/07 04:13:18;;;;;;;19.20;15.20;;;;;;;12.22;88.10;95322.59;5056501;28;20801;-81
2021/10/07 04:15:46;;;;;;;15.90;14.20;;;;;;;12.24;88.72;95312.78;5056339;28;20488;-79
2021/10/07 04:18:13;;;;;;;16.83;13.20;;;;;;;12.37;87.89;95312.56;5070559;28;20504;-79
2021/10/07 04:20:40;;;;;;;21.33;14.70;;;;;;;12.36;85.96;95313.53;5056285;28;20441;-79
2021/10/07 04:23:07;;;;;;;16.80;14.70;;;;;;;12.40;85.91;95315.75;5056456;28;20433;-80
2021/10/07 04:25:34;;;;;;;18.43;15.00;;;;;;;12.43;84.69;95306.78;5056362;28;20793;-81
2021/10/07 04:28:04;;;;;;;15.93;12.83;;;;;;;12.49;84.30;95294.91;5055923;28;20442;-88
2021/10/07 04:30:34;;;;;;;14.77;11.20;;;;;;;12.48;84.21;95303.78;5055693;28;20525;-79
2021/10/07 04:33:01;;;;;;;19.23;11.90;;;;;;;12.51;84.03;95298.25;5056061;28;20445;-78
2021/10/07 04:35:28;;;;;;;17.03;13.23;;;;;;;12.43;84.14;95296.25;5070505;28;21000;-79
2021/10/07 04:37:55;;;;;;;15.50;11.47;;;;;;;12.40;84.05;95301.78;5070279;28;20945;-78
2021/10/07 04:40:23;;;;;;;14.37;10.97;;;;;;;12.37;84.15;95297.59;5070061;28;20791;-78
2021/10/07 04:42:50;;;;;;;16.73;14.23;;;;;;;12.43;83.49;95295.41;5055488;28;20442;-78
2021/10/07 04:45:17;;;;;;;17.47;11.67;;;;;;;12.41;83.42;95311.31;5055820;28;20487;-79
2021/10/07 04:47:45;;;;;;;14.60;10.00;;;;;;;12.48;83.35;95301.97;5055577;28;20934;-79
2021/10/07 04:50:12;;;;;;;12.80;11.47;;;;;;;12.17;85.13;95305.53;5036808;28;20450;-79
2021/10/07 04:52:39;;;;;;;16.40;12.13;;;;;;;11.88;86.18;95300.09;5036579;28;20938;-78
2021/10/07 04:55:07;;;;;;;14.60;13.07;;;;;;;11.74;87.75;95306.44;5055545;28;20506;-80
2021/10/07 04:57:34;;;;;;;35.10;17.33;;;;;;;12.00;98.17;95304.31;5054985;28;20490;-80
2021/10/07 05:00:01;;;;;;;21.20;12.77;;;;;;;11.92;89.23;95312.84;5055659;28;20782;-79
2021/10/07 05:02:28;;;;;;;18.33;13.67;;;;;;;12.02;88.97;95311.13;5055372;28;20446;-79
2021/10/07 05:04:56;;;;;;;39.97;16.30;;;;;;;12.14;93.12;95303.16;5055235;28;20450;-79
2021/10/07 05:07:23;;;;;;;20.43;14.63;;;;;;;12.08;88.87;95309.75;5054950;28;20452;-80
2021/10/07 05:09:50;;;;;;;22.10;13.30;;;;;;;12.22;88.06;95319.97;5069990;28;20454;-79
2021/10/07 05:12:17;;;;;;;20.40;14.03;;;;;;;11.88;88.33;95315.88;5056204;28;20533;-79
2021/10/07 05:14:46;;;;;;;20.23;14.67;;;;;;;12.05;87.79;95312.66;5054467;28;20442;-78
2021/10/07 05:17:12;;;;;;;24.07;13.40;;;;;;;12.02;87.92;95316.38;5055117;28;20452;-79
2021/10/07 05:19:39;;;;;;;18.77;13.50;;;;;;;12.12;90.22;95324.31;5054736;28;20938;-79
2021/10/07 05:22:08;;;;;;;16.47;12.97;;;;;;;12.24;89.15;95327.72;5055115;28;20464;-79
2021/10/07 05:24:35;;;;;;;19.47;14.20;;;;;;;12.33;87.23;95325.16;5019308;28;20434;-79
2021/10/07 05:27:01;;;;;;;16.87;13.57;;;;;;;12.19;87.34;95324.66;5053962;28;20448;-79
2021/10/07 05:29:28;;;;;;;19.67;12.17;;;;;;;12.26;86.96;95315.28;5053827;28;20449;-79
2021/10/07 05:31:55;;;;;;;19.50;13.40;;;;;;;12.22;86.74;95314.72;5053236;28;20995;-79
2021/10/07 05:34:22;;;;;;;15.20;13.27;;;;;;;12.19;85.95;95314.97;5068077;28;20450;-79
2021/10/07 05:36:49;;;;;;;39.70;29.60;;;;;;;12.32;86.00;95320.00;5067967;28;20492;-79
2021/10/07 05:39:17;;;;;;;19.07;11.47;;;;;;;12.05;86.44;95310.84;5053417;28;20454;-78
2021/10/07 05:41:44;;;;;;;13.60;10.23;;;;;;;12.03;86.43;95310.16;5053850;28;20926;-79
2021/10/07 05:44:11;;;;;;;16.23;11.27;;;;;;;12.20;86.08;95313.19;5053715;28;20445;-79
2021/10/07 05:46:38;;;;;;;14.37;10.63;;;;;;;12.06;86.36;95309.06;5053508;28;20446;-79
2021/10/07 05:49:06;;;;;;;14.67;10.30;;;;;;;11.93;85.76;95319.78;5053426;28;20446;-79
2021/10/07 05:51:34;;;;;;;12.40;9.40;;;;;;;11.93;86.55;95321.59;5034762;28;20442;-78
2021/10/07 05:54:01;;;;;;;13.53;8.93;;;;;;;11.94;86.26;95320.63;5067716;28;20446;-79
2021/10/07 05:56:29;;;;;;;14.13;9.33;;;;;;;11.93;85.88;95317.16;5052905;28;20992;-79
2021/10/07 05:58:56;;;;;;;12.00;9.20;;;;;;;11.99;86.53;95302.66;5053518;28;20449;-79
2021/10/07 06:01:23;;;;;;;11.47;8.70;;;;;;;12.13;85.64;95307.56;5053334;28;20442;-79
2021/10/07 06:03:50;;;;;;;14.17;10.17;;;;;;;12.06;85.76;95312.53;5034538;28;20430;-79
2021/10/07 06:06:18;;;;;;;16.10;9.30;;;;;;;12.10;85.25;95313.09;5053072;28;20446;-79
2021/10/07 06:08:45;;;;;;;14.67;9.70;;;;;;;12.08;85.54;95318.47;5052902;28;20446;-79
2021/10/07 06:11:11;;;;;;;9.43;8.53;;;;;;;12.31;85.32;95329.72;5052987;28;20456;-79
2021/10/07 06:13:40;;;;;;;18.60;9.80;;;;;;;12.38;84.13;95330.84;5053255;28;20450;-79
2021/10/07 06:16:07;;;;;;;12.23;10.27;;;;;;;12.39;84.30;95337.78;5052770;28;20481;-79
2021/10/07 06:18:35;;;;;;;21.60;11.30;;;;;;;12.37;84.62;95334.44;5053009;28;20452;-79
2021/10/07 06:21:02;;;;;;;11.43;9.23;;;;;;;12.40;83.57;95331.56;5053210;28;20442;-79
2021/10/07 06:23:29;;;;;;;23.53;9.83;;;;;;;12.18;83.61;95333.53;5052813;28;20813;-79
2021/10/07 06:25:56;;;;;;;12.93;9.60;;;;;;;12.29;84.12;95336.91;5052795;28;20460;-79
2021/10/07 06:28:22;;;;;;;12.63;9.70;;;;;;;12.43;83.53;95337.53;5052594;28;20959;-79
2021/10/07 06:30:51;;;;;;;11.57;9.30;;;;;;;12.40;82.71;95342.06;5053222;28;20457;-79
2021/10/07 06:33:18;;;;;;;16.93;9.80;;;;;;;12.24;83.56;95340.88;5052384;28;20453;-79
2021/10/07 06:35:45;;;;;;;13.87;9.80;;;;;;;12.22;83.47;95341.03;5034127;28;20850;-79
2021/10/07 06:38:12;;;;;;;11.33;9.70;;;;;;;12.33;83.37;95345.38;5052963;28;20529;-79
2021/10/07 06:40:38;;;;;;;15.73;9.67;;;;;;;12.34;83.42;95345.22;5052328;28;21017;-79
2021/10/07 06:43:05;;;;;;;14.10;8.77;;;;;;;12.39;84.00;95347.47;5052586;28;20449;-79
2021/10/07 06:45:34;;;;;;;12.03;10.37;;;;;;;12.33;85.04;95342.72;5052659;28;20446;-78
2021/10/07 06:48:02;;;;;;;15.43;10.33;;;;;;;12.14;86.50;95340.81;5017200;28;20522;-78
2021/10/07 06:50:29;;;;;;;15.47;10.37;;;;;;;11.94;88.94;95339.84;5033687;28;20823;-79
2021/10/07 06:52:57;;;;;;;17.17;10.13;;;;;;;11.91;89.64;95337.50;5052198;28;20541;-79
2021/10/07 06:55:25;;;;;;;16.70;11.40;;;;;;;11.86;89.76;95344.09;5052292;28;20580;-79
2021/10/07 06:57:52;;;;;;;18.90;10.47;;;;;;;11.81;92.05;95343.63;5033514;28;21053;-79
2021/10/07 07:00:18;;;;;;;19.23;10.00;;;;;;;11.70;93.67;95334.78;5051912;28;20450;-79
2021/10/07 07:02:46;;;;;;;21.73;8.40;;;;;;;11.55;95.10;95336.03;5051994;28;20801;-79
2021/10/07 07:05:14;;;;;;;18.70;11.07;;;;;;;11.52;96.73;95333.66;5051907;28;20495;-79
2021/10/07 07:07:41;;;;;;;15.57;10.13;;;;;;;11.53;97.22;95342.38;5052077;28;20434;-79
2021/10/07 07:10:17;;;;;;;14.20;11.23;;;;;;;11.42;98.42;95345.88;5051827;28;20478;-79
2021/10/07 07:12:44;;;;;;;15.60;10.70;;;;;;;11.34;99.67;95348.31;5034581;28;20475;-79
2021/10/07 07:15:11;;;;;;;13.27;8.70;;;;;;;11.31;99.38;95357.28;5051819;28;20449;-79
2021/10/07 07:17:38;;;;;;;17.73;10.40;;;;;;;11.28;100.00;95348.81;5051773;28;20438;-79
2021/10/07 07:20:07;;;;;;;18.83;11.27;;;;;;;11.23;100.00;95337.81;5051767;28;20786;-79
2021/10/07 07:22:35;;;;;;;18.10;11.67;;;;;;;11.39;100.00;95340.88;5051432;28;20811;-79
2021/10/07 07:25:02;;;;;;;20.90;12.40;;;;;;;11.57;99.22;95349.91;5051798;28;20454;-79
2021/10/07 07:27:29;;;;;;;14.87;10.80;;;;;;;11.67;98.05;95350.81;5051835;28;20548;-79
2021/10/07 07:29:56;;;;;;;19.93;11.90;;;;;;;11.72;95.74;95353.91;5052020;28;20441;-79
2021/10/07 07:32:23;;;;;;;17.33;11.50;;;;;;;11.86;95.25;95344.94;5051876;28;20444;-79
2021/10/07 07:34:50;;;;;;;11.80;10.07;;;;;;;11.82;91.32;95353.16;5066498;28;20445;-79
2021/10/07 07:38:15;;;;;;;13.20;9.30;;;;;;;11.81;91.46;95365.47;5051595;28;20997;-79
2021/10/07 07:40:44;;;;;;;10.90;9.47;;;;;;;11.91;91.04;95373.47;4990119;28;20457;-79
2021/10/07 07:43:18;;;;;;;19.50;10.33;;;;;;;12.06;89.93;95370.38;4990179;28;20464;-79
2021/10/07 07:45:45;;;;;;;16.87;9.40;;;;;;;12.08;89.13;95375.53;4990064;28;20487;-79
2021/10/07 07:48:12;;;;;;;15.30;10.50;;;;;;;12.19;88.87;95378.13;4957952;28;20445;-79
2021/10/07 07:50:39;;;;;;;17.30;10.87;;;;;;;12.13;88.45;95383.03;4989957;28;20833;-79
2021/10/07 07:53:06;;;;;;;11.23;9.13;;;;;;;12.14;87.60;95382.91;4989966;28;20448;-78
2021/10/07 07:55:33;;;;;;;14.27;8.50;;;;;;;12.09;86.80;95387.72;4989749;28;20482;-79
2021/10/07 07:58:01;;;;;;;11.97;8.37;;;;;;;12.03;85.74;95393.50;4973732;28;20448;-79
2021/10/07 08:00:28;;;;;;;14.70;10.60;;;;;;;12.14;86.90;95393.41;4989894;28;20457;-79
2021/10/07 08:02:55;;;;;;;16.07;9.90;;;;;;;12.15;86.31;95389.88;4990013;28;20441;-79
2021/10/07 08:05:22;;;;;;;23.73;21.20;;;;;;;12.17;85.57;95390.56;5017231;28;20454;-78
2021/10/07 08:07:49;;;;;;;10.60;7.90;;;;;;;12.02;85.67;95389.19;5029381;28;20449;-79
2021/10/07 08:10:18;;;;;;;25.23;9.63;;;;;;;12.12;85.32;95387.47;5029272;28;20807;-79
2021/10/07 08:12:45;;;;;;;13.67;9.00;;;;;;;12.04;85.56;95379.38;5029205;28;20450;-79
2021/10/07 08:15:13;;;;;;;16.97;11.70;;;;;;;12.28;86.32;95382.59;5029428;28;20439;-79
2021/10/07 08:17:40;;;;;;;19.07;11.53;;;;;;;12.39;85.91;95377.25;5045157;28;20489;-79
2021/10/07 08:20:11;;;;;;;21.10;11.03;;;;;;;12.48;85.14;95380.09;5051539;28;20460;-79
2021/10/07 08:22:39;;;;;;;17.20;9.10;;;;;;;12.40;83.48;95378.09;5065636;28;20452;-79
2021/10/07 08:25:08;;;;;;;9.47;7.97;;;;;;;12.51;84.19;95385.94;5051613;28;20474;-79
2021/10/07 08:27:35;;;;;;;15.80;9.80;;;;;;;12.62;82.37;95390.28;5051310;28;20442;-79
2021/10/07 08:30:02;;;;;;;18.03;10.43;;;;;;;12.65;81.88;95395.28;5051304;28;20446;-79
2021/10/07 08:32:30;;;;;;;28.63;11.20;;;;;;;12.70;82.56;95393.91;5051793;28;20529;-79
2021/10/07 08:34:57;;;;;;;21.60;10.93;;;;;;;12.69;82.26;95386.16;5054907;28;20442;-79
2021/10/07 08:37:24;;;;;;;12.73;10.57;;;;;;;12.73;83.23;95377.06;5054701;28;20922;-78
2021/10/07 08:39:51;;;;;;;12.93;8.60;;;;;;;12.85;82.02;95383.06;5054885;28;20960;-79
2021/10/07 08:42:18;;;;;;;15.30;9.87;;;;;;;12.97;81.12;95377.56;5036118;28;20433;-79
2021/10/07 08:44:45;;;;;;;22.60;12.00;;;;;;;12.99;80.64;95375.63;5054715;28;21367;-79
2021/10/07 08:47:12;;;;;;;17.93;11.87;;;;;;;13.02;80.79;95383.28;5035998;28;20453;-79
2021/10/07 08:49:44;;;;;;;17.10;10.10;;;;;;;13.01;80.08;95378.16;5054593;28;20449;-78
2021/10/07 08:52:11;;;;;;;15.60;7.43;;;;;;;12.89;78.87;95393.19;5054763;28;20443;-79
2021/10/07 08:54:38;;;;;;;16.43;8.87;;;;;;;12.93;78.92;95391.97;5054314;28;20453;-80
2021/10/07 08:57:06;;;;;;;10.73;9.07;;;;;;;12.99;79.68;95382.69;5054089;28;20499;-79
2021/10/07 08:59:35;;;;;;;9.10;8.13;;;;;;;13.08;79.82;95376.66;5054709;28;20454;-79
2021/10/07 09:02:06;;;;;;;15.23;9.23;;;;;;;13.16;79.54;95373.34;5054730;28;20453;-80
2021/10/07 09:04:36;;;;;;;19.13;9.53;;;;;;;13.13;79.34;95378.88;5054281;28;20482;-79
2021/10/07 09:07:08;;;;;;;14.93;10.20;;;;;;;13.21;79.73;95387.81;5054736;28;20819;-79
2021/10/07 09:09:40;;;;;;;12.70;8.30;;;;;;;13.29;78.66;95389.75;5054083;28;20525;-79
2021/10/07 09:12:09;;;;;;;13.30;10.10;;;;;;;13.32;78.26;95379.81;5054257;28;20456;-79
2021/10/07 09:14:38;;;;;;;13.90;8.80;;;;;;;13.32;77.39;95384.25;5054329;28;20438;-79
2021/10/07 09:17:10;;;;;;;15.53;10.37;;;;;;;13.37;78.10;95386.47;5053965;28;20496;-79
2021/10/07 09:19:41;;;;;;;12.50;9.77;;;;;;;13.43;77.86;95392.03;5053921;28;20457;-78
2021/10/07 09:22:17;;;;;;;14.43;9.00;;;;;;;13.48;77.41;95387.19;5053947;28;20453;-77
2021/10/07 09:24:45;;;;;;;19.10;8.90;;;;;;;13.42;76.79;95384.25;5054193;28;20841;-78
2021/10/07 09:27:14;;;;;;;11.87;8.63;;;;;;;13.30;76.53;95386.19;5053766;28;20442;-78
2021/10/07 09:29:44;;;;;;;12.80;8.27;;;;;;;13.31;77.30;95386.06;5053724;28;20529;-78
2021/10/07 09:32:12;;;;;;;11.60;9.43;;;;;;;13.38;77.38;95381.06;5054123;28;20446;-78
2021/10/07 09:34:49;;;;;;;26.27;11.97;;;;;;;13.47;77.60;95384.69;5053759;28;20781;-78
2021/10/07 09:37:29;;;;;;;13.57;9.87;;;;;;;13.39;78.27;95385.38;5053666;28;20488;-78
2021/10/07 09:40:05;;;;;;;13.33;9.67;;;;;;;13.46;77.79;95386.50;5054299;28;20445;-78
2021/10/07 09:42:35;;;;;;;13.37;10.20;;;;;;;13.54;77.87;95378.72;5053445;28;20444;-78
2021/10/07 09:45:14;;;;;;;17.27;9.57;;;;;;;13.66;77.27;95386.53;5052763;28;20926;-78
2021/10/07 09:47:44;;;;;;;16.97;9.20;;;;;;;13.70;77.19;95391.41;5053273;28;20452;-78
2021/10/07 09:50:33;;;;;;;20.20;10.00;;;;;;;13.71;76.41;95389.59;5053338;28;20460;-78
2021/10/07 09:53:05;;;;;;;12.37;9.73;;;;;;;13.55;75.83;95380.38;5053643;28;20446;-78
2021/10/07 09:55:35;;;;;;;17.10;9.23;;;;;;;13.62;75.99;95380.72;5053001;28;20476;-78
2021/10/07 09:58:04;;;;;;;12.83;10.33;;;;;;;13.68;76.39;95384.59;5053280;28;20939;-78
2021/10/07 10:00:36;;;;;;;19.20;10.00;;;;;;;13.65;77.06;95380.44;5053408;28;20504;-78
2021/10/07 10:03:05;;;;;;;10.23;9.13;;;;;;;13.69;76.63;95376.53;5053165;28;20478;-78
2021/10/07 10:05:34;;;;;;;10.93;9.30;;;;;;;13.69;76.53;95367.78;5034375;28;20933;-78
2021/10/07 10:08:03;;;;;;;14.17;9.30;;;;;;;13.80;76.78;95372.94;5053072;28;21009;-77
2021/10/07 10:10:30;;;;;;;13.60;9.60;;;;;;;13.80;76.34;95370.28;5053216;28;20442;-78
2021/10/07 10:12:58;;;;;;;22.10;12.40;;;;;;;13.43;77.65;95370.94;5052784;28;20450;-78
2021/10/07 10:15:25;;;;;;;16.77;8.90;;;;;;;13.34;78.60;95369.13;5052889;28;21207;-78
2021/10/07 10:17:53;;;;;;;10.17;8.17;;;;;;;13.39;77.70;95361.66;5052703;28;20486;-78
2021/10/07 10:20:21;;;;;;;11.20;8.07;;;;;;;13.50;76.91;95361.50;5052432;28;20941;-78
2021/10/07 10:22:53;;;;;;;8.77;7.20;;;;;;;13.62;77.08;95360.44;5052783;28;20438;-78
2021/10/07 10:25:21;;;;;;;10.40;6.60;;;;;;;13.56;76.58;95362.78;5052804;28;20437;-78
2021/10/07 10:27:50;;;;;;;13.07;7.30;;;;;;;13.59;76.40;95359.88;5052602;28;20509;-78
2021/10/07 10:30:25;;;;;;;17.57;7.80;;;;;;;13.63;75.92;95350.72;5052690;28;20446;-78
2021/10/07 10:32:54;;;;;;;10.00;7.10;;;;;;;13.71;75.50;95364.06;5052423;28;20952;-78
2021/10/07 10:35:39;;;;;;;12.53;8.00;;;;;;;13.72;75.31;95359.59;5052359;28;20446;-78
2021/10/07 10:38:09;;;;;;;9.47;7.40;;;;;;;13.76;75.28;95358.34;5052690;28;20492;-78
2021/10/07 10:40:39;;;;;;;16.43;9.40;;;;;;;13.81;75.51;95348.22;5052511;28;20468;-78
2021/10/07 10:43:36;;;;;;;17.13;10.20;;;;;;;13.88;75.24;95344.91;5052411;28;20442;-78
2021/10/07 10:46:11;;;;;;;14.37;8.43;;;;;;;13.91;75.14;95351.72;5052638;28;20984;-78
2021/10/07 10:49:03;;;;;;;16.30;7.40;;;;;;;13.93;74.91;95341.84;5052438;28;20444;-79
2021/10/07 10:51:35;;;;;;;8.57;6.33;;;;;;;13.91;74.85;95344.63;5029866;28;20447;-79
2021/10/07 10:54:05;;;;;;;12.93;7.20;;;;;;;13.90;75.46;95347.41;5029997;28;20795;-78
2021/10/07 10:56:39;;;;;;;10.87;7.80;;;;;;;13.92;75.63;95350.75;5029060;28;21014;-78
2021/10/07 10:59:27;;;;;;;12.83;6.43;;;;;;;13.90;74.79;95345.59;5030132;28;20439;-78
2021/10/07 11:02:28;;;;;;;15.70;7.83;;;;;;;13.97;75.45;95340.59;4970979;28;20532;-78
2021/10/07 11:04:57;;;;;;;23.33;7.60;;;;;;;13.92;75.13;95338.38;4971125;28;20457;-78
2021/10/07 11:07:31;;;;;;;17.00;6.10;;;;;;;13.94;74.64;95346.16;4970875;28;20568;-78
2021/10/07 11:10:04;;;;;;;21.77;8.03;;;;;;;13.98;74.61;95323.78;4970945;28;20805;-78
2021/10/07 11:12:42;;;;;;;22.83;8.27;;;;;;;14.00;74.42;95327.13;4970948;28;20446;-79
2021/10/07 11:15:10;;;;;;;20.00;8.50;;;;;;;14.04;74.08;95320.59;4955099;28;20457;-78
2021/10/07 11:17:39;;;;;;;15.70;7.60;;;;;;;14.10;74.13;95322.66;4970876;28;20488;-78
2021/10/07 11:20:07;;;;;;;8.97;6.73;;;;;;;14.05;74.55;95319.59;4971073;28;20536;-78
2021/10/07 11:22:34;;;;;;;14.23;6.93;;;;;;;14.13;73.58;95317.09;4971232;28;20457;-78
2021/10/07 11:25:01;;;;;;;16.93;7.33;;;;;;;14.15;74.84;95309.88;4970866;28;20448;-78
2021/10/07 11:27:34;;;;;;;14.50;8.27;;;;;;;14.18;74.95;95306.97;4943467;28;20462;-78